sensor_id;sensor_type;location;lat;lon;timestamp;pressure;altitude;pressure_sealevel;temperature;humidity
69848;BME280;57143;55.940;37.496;2023-04-19T00:00:46;100033.00;;;8.88;100.00
69848;BME280;57143;55.940;37.496;2023-04-19T00:03:14;100019.88;;;8.85;100.00
69848;BME280;57143;55.940;37.496;2023-04-19T00:05:43;100029.66;;;8.86;100.00
69848;BME280;57143;55.940;37.496;2023-04-19T00:08:11;100022.56;;;8.78;100.00
69848;BME280;57143;55.940;37.496;2023-04-19T00:10:38;100016.72;;;8.75;100.00
69848;BME280;57143;55.940;37.496;2023-04-19T00:13:05;100025.81;;;8.74;100.00
69848;BME280;57143;55.940;37.496;2023-04-19T00:15:33;100021.84;;;8.70;100.00
69848;BME280;57143;55.940;37.496;2023-04-19T00:18:00;100010.56;;;8.60;100.00
69848;BME280;57143;55.940;37.496;2023-04-19T00:20:27;100020.53;;;8.59;100.00
69848;BME280;57143;55.940;37.496;2023-04-19T00:22:56;100039.38;;;8.80;100.00
69848;BME280;57143;55.940;37.496;2023-04-19T00:25:24;100047.69;;;8.79;100.00
69848;BME280;57143;55.940;37.496;2023-04-19T00:27:51;100053.72;;;8.81;100.00
69848;BME280;57143;55.940;37.496;2023-04-19T00:30:18;100051.88;;;8.81;100.00
69848;BME280;57143;55.940;37.496;2023-04-19T00:32:45;100044.16;;;8.78;100.00
69848;BME280;57143;55.940;37.496;2023-04-19T00:35:12;100039.97;;;8.76;100.00
69848;BME280;57143;55.940;37.496;2023-04-19T00:37:40;100048.53;;;8.79;100.00
69848;BME280;57143;55.940;37.496;2023-04-19T00:40:09;100058.50;;;8.79;100.00
69848;BME280;57143;55.940;37.496;2023-04-19T00:42:37;100056.19;;;8.76;100.00
69848;BME280;57143;55.940;37.496;2023-04-19T00:45:05;100062.66;;;8.75;100.00
69848;BME280;57143;55.940;37.496;2023-04-19T00:47:32;100071.38;;;8.77;100.00
69848;BME280;57143;55.940;37.496;2023-04-19T00:50:00;100066.16;;;8.75;100.00
69848;BME280;57143;55.940;37.496;2023-04-19T00:52:29;100076.78;;;8.77;100.00
69848;BME280;57143;55.940;37.496;2023-04-19T00:54:58;100073.81;;;8.72;100.00
69848;BME280;57143;55.940;37.496;2023-04-19T00:57:27;100064.91;;;8.71;100.00
69848;BME280;57143;55.940;37.496;2023-04-19T00:59:56;100083.22;;;8.76;100.00
69848;BME280;57143;55.940;37.496;2023-04-19T01:02:23;100068.41;;;8.72;100.00
69848;BME280;57143;55.940;37.496;2023-04-19T01:04:50;100083.22;;;8.76;100.00
69848;BME280;57143;55.940;37.496;2023-04-19T01:07:18;100082.38;;;8.75;100.00
69848;BME280;57143;55.940;37.496;2023-04-19T01:09:45;100096.53;;;8.77;100.00
69848;BME280;57143;55.940;37.496;2023-04-19T01:12:13;100095.31;;;8.80;100.00
69848;BME280;57143;55.940;37.496;2023-04-19T01:14:41;100088.22;;;8.79;100.00
69848;BME280;57143;55.940;37.496;2023-04-19T01:17:09;100091.13;;;8.77;100.00
69848;BME280;57143;55.940;37.496;2023-04-19T01:19:38;100103.22;;;8.81;100.00
69848;BME280;57143;55.940;37.496;2023-04-19T01:22:05;100096.97;;;8.81;100.00
69848;BME280;57143;55.940;37.496;2023-04-19T01:24:34;100094.06;;;8.82;100.00
69848;BME280;57143;55.940;37.496;2023-04-19T01:27:01;100106.13;;;8.80;100.00
69848;BME280;57143;55.940;37.496;2023-04-19T01:29:28;100101.75;;;8.79;100.00
69848;BME280;57143;55.940;37.496;2023-04-19T01:31:55;100084.72;;;8.78;100.00
69848;BME280;57143;55.940;37.496;2023-04-19T01:34:23;100086.31;;;8.73;100.00
69848;BME280;57143;55.940;37.496;2023-04-19T01:36:50;100087.78;;;8.75;100.00
69848;BME280;57143;55.940;37.496;2023-04-19T01:39:17;100078.41;;;8.71;100.00
69848;BME280;57143;55.940;37.496;2023-04-19T01:41:46;100091.13;;;8.77;100.00
69848;BME280;57143;55.940;37.496;2023-04-19T01:44:13;100096.09;;;8.74;100.00
69848;BME280;57143;55.940;37.496;2023-04-19T01:46:40;100084.72;;;8.78;100.00
69848;BME280;57143;55.940;37.496;2023-04-19T01:49:08;100083.22;;;8.76;100.00
69848;BME280;57143;55.940;37.496;2023-04-19T01:51:36;100075.50;;;8.73;100.00
69848;BME280;57143;55.940;37.496;2023-04-19T01:54:03;100077.78;;;8.69;100.00
69848;BME280;57143;55.940;37.496;2023-04-19T01:56:30;100086.13;;;8.74;100.00
69848;BME280;57143;55.940;37.496;2023-04-19T01:58:59;100073.59;;;8.67;100.00
69848;BME280;57143;55.940;37.496;2023-04-19T02:01:26;100080.69;;;8.68;100.00
69848;BME280;57143;55.940;37.496;2023-04-19T02:03:53;100073.38;;;8.68;100.00
69848;BME280;57143;55.940;37.496;2023-04-19T02:06:20;100068.81;;;8.69;100.00
69848;BME280;57143;55.940;37.496;2023-04-19T02:08:47;100078.97;;;8.67;100.00
69848;BME280;57143;55.940;37.496;2023-04-19T02:11:15;100064.03;;;8.64;100.00
69848;BME280;57143;55.940;37.496;2023-04-19T02:13:42;100067.34;;;8.66;100.00
69848;BME280;57143;55.940;37.496;2023-04-19T02:16:11;100062.97;;;8.65;100.00
69848;BME280;57143;55.940;37.496;2023-04-19T02:18:38;100054.63;;;8.60;100.00
69848;BME280;57143;55.940;37.496;2023-04-19T02:21:07;100058.63;;;8.64;100.00
69848;BME280;57143;55.940;37.496;2023-04-19T02:23:34;100059.19;;;8.60;100.00
69848;BME280;57143;55.940;37.496;2023-04-19T02:26:02;100065.22;;;8.62;100.00
69848;BME280;57143;55.940;37.496;2023-04-19T02:28:29;100058.09;;;8.54;100.00
69848;BME280;57143;55.940;37.496;2023-04-19T02:30:57;100053.09;;;8.51;100.00
69848;BME280;57143;55.940;37.496;2023-04-19T02:33:26;100045.38;;;8.48;100.00
69848;BME280;57143;55.940;37.496;2023-04-19T02:35:53;100057.09;;;8.55;100.00
69848;BME280;57143;55.940;37.496;2023-04-19T02:38:20;100059.75;;;8.49;100.00
69848;BME280;57143;55.940;37.496;2023-04-19T02:40:48;100052.19;;;8.44;100.00
69848;BME280;57143;55.940;37.496;2023-04-19T02:43:15;100065.94;;;8.49;100.00
69848;BME280;57143;55.940;37.496;2023-04-19T02:45:42;100065.72;;;8.44;100.00
69848;BME280;57143;55.940;37.496;2023-04-19T02:48:10;100063.66;;;8.46;100.00
69848;BME280;57143;55.940;37.496;2023-04-19T02:50:38;100074.25;;;8.48;100.00
69848;BME280;57143;55.940;37.496;2023-04-19T02:53:06;100073.59;;;8.46;100.00
69848;BME280;57143;55.940;37.496;2023-04-19T02:55:33;100070.03;;;8.39;100.00
69848;BME280;57143;55.940;37.496;2023-04-19T02:58:00;100075.50;;;8.45;100.00
69848;BME280;57143;55.940;37.496;2023-04-19T03:00:27;100069.66;;;8.42;100.00
69848;BME280;57143;55.940;37.496;2023-04-19T03:02:55;100079.00;;;8.46;100.00
69848;BME280;57143;55.940;37.496;2023-04-19T03:05:23;100067.59;;;8.44;100.00
69848;BME280;57143;55.940;37.496;2023-04-19T03:07:51;100085.72;;;8.50;100.00
69848;BME280;57143;55.940;37.496;2023-04-19T03:10:19;100087.19;;;8.52;100.00
69848;BME280;57143;55.940;37.496;2023-04-19T03:12:46;100097.16;;;8.52;100.00
69848;BME280;57143;55.940;37.496;2023-04-19T03:15:13;100089.69;;;8.54;100.00
69848;BME280;57143;55.940;37.496;2023-04-19T03:17:40;100073.59;;;8.46;100.00
69848;BME280;57143;55.940;37.496;2023-04-19T03:20:08;100096.75;;;8.55;100.00
69848;BME280;57143;55.940;37.496;2023-04-19T03:22:36;100092.00;;;8.57;100.00
69848;BME280;57143;55.940;37.496;2023-04-19T03:25:06;100096.38;;;8.58;100.00
69848;BME280;57143;55.940;37.496;2023-04-19T03:27:34;100100.75;;;8.59;100.00
69848;BME280;57143;55.940;37.496;2023-04-19T03:30:02;100106.81;;;8.61;100.00
69848;BME280;57143;55.940;37.496;2023-04-19T03:32:32;100101.00;;;8.64;100.00
69848;BME280;57143;55.940;37.496;2023-04-19T03:35:01;100115.97;;;8.66;100.00
69848;BME280;57143;55.940;37.496;2023-04-19T03:37:31;100118.06;;;8.64;100.00
69848;BME280;57143;55.940;37.496;2023-04-19T03:39:58;100115.41;;;8.71;100.00
69848;BME280;57143;55.940;37.496;2023-04-19T03:42:27;100122.09;;;8.75;100.00
69848;BME280;57143;55.940;37.496;2023-04-19T03:44:54;100123.75;;;8.76;100.00
69848;BME280;57143;55.940;37.496;2023-04-19T03:47:21;100129.41;;;8.81;100.00
69848;BME280;57143;55.940;37.496;2023-04-19T03:49:48;100137.31;;;8.82;100.00
69848;BME280;57143;55.940;37.496;2023-04-19T03:52:16;100128.56;;;8.80;100.00
69848;BME280;57143;55.940;37.496;2023-04-19T03:54:43;100130.25;;;8.81;100.00
69848;BME280;57143;55.940;37.496;2023-04-19T03:57:10;100125.75;;;8.88;100.00
69848;BME280;57143;55.940;37.496;2023-04-19T03:59:40;100124.91;;;8.88;100.00
69848;BME280;57143;55.940;37.496;2023-04-19T04:02:08;100119.28;;;8.89;100.00
69848;BME280;57143;55.940;37.496;2023-04-19T04:04:35;100124.53;;;8.97;100.00
69848;BME280;57143;55.940;37.496;2023-04-19T04:07:02;100124.59;;;9.04;100.00
69848;BME280;57143;55.940;37.496;2023-04-19T04:09:29;100123.31;;;9.00;100.00
69848;BME280;57143;55.940;37.496;2023-04-19T04:11:56;100129.41;;;9.08;100.00
69848;BME280;57143;55.940;37.496;2023-04-19T04:14:24;100124.59;;;9.04;100.00
69848;BME280;57143;55.940;37.496;2023-04-19T04:16:52;100132.16;;;9.15;100.00
69848;BME280;57143;55.940;37.496;2023-04-19T04:19:19;100108.63;;;9.09;100.00
69848;BME280;57143;55.940;37.496;2023-04-19T04:21:47;100130.13;;;9.23;100.00
69848;BME280;57143;55.940;37.496;2023-04-19T04:24:17;100090.00;;;8.93;100.00
69848;BME280;57143;55.940;37.496;2023-04-19T04:26:47;100113.44;;;9.13;100.00
69848;BME280;57143;55.940;37.496;2023-04-19T04:29:16;100117.44;;;9.24;100.00
69848;BME280;57143;55.940;37.496;2023-04-19T04:31:43;100117.47;;;9.30;100.00
69848;BME280;57143;55.940;37.496;2023-04-19T04:34:12;100110.19;;;9.24;100.00
69848;BME280;57143;55.940;37.496;2023-04-19T04:36:39;100118.38;;;9.38;100.00
69848;BME280;57143;55.940;37.496;2023-04-19T04:39:07;100135.13;;;9.54;100.00
69848;BME280;57143;55.940;37.496;2023-04-19T04:41:36;100141.13;;;9.56;100.00
69848;BME280;57143;55.940;37.496;2023-04-19T04:44:06;100144.47;;;9.58;100.00
69848;BME280;57143;55.940;37.496;2023-04-19T04:46:34;100140.81;;;9.72;100.00
69848;BME280;57143;55.940;37.496;2023-04-19T04:49:01;100108.44;;;9.51;100.00
69848;BME280;57143;55.940;37.496;2023-04-19T04:51:31;100159.44;;;9.95;100.00
69848;BME280;57143;55.940;37.496;2023-04-19T04:53:58;100163.25;;;10.07;100.00
69848;BME280;57143;55.940;37.496;2023-04-19T04:56:26;100174.84;;;10.41;100.00
69848;BME280;57143;55.940;37.496;2023-04-19T04:58:53;100198.50;;;10.87;100.00
69848;BME280;57143;55.940;37.496;2023-04-19T05:01:21;100207.22;;;10.82;100.00
69848;BME280;57143;55.940;37.496;2023-04-19T05:03:49;100205.16;;;10.84;100.00
69848;BME280;57143;55.940;37.496;2023-04-19T05:06:16;100209.34;;;10.93;100.00
69848;BME280;57143;55.940;37.496;2023-04-19T05:08:45;100215.41;;;11.02;100.00
69848;BME280;57143;55.940;37.496;2023-04-19T05:11:13;100209.38;;;11.13;100.00
69848;BME280;57143;55.940;37.496;2023-04-19T05:13:40;100211.88;;;11.08;100.00
69848;BME280;57143;55.940;37.496;2023-04-19T05:16:07;100193.50;;;10.97;100.00
69848;BME280;57143;55.940;37.496;2023-04-19T05:18:35;100224.38;;;11.09;100.00
69848;BME280;57143;55.940;37.496;2023-04-19T05:21:02;100213.94;;;11.25;100.00
69848;BME280;57143;55.940;37.496;2023-04-19T05:23:29;100221.03;;;11.26;100.00
69848;BME280;57143;55.940;37.496;2023-04-19T05:25:58;100227.28;;;11.40;100.00
69848;BME280;57143;55.940;37.496;2023-04-19T05:28:25;100223.28;;;11.82;100.00
69848;BME280;57143;55.940;37.496;2023-04-19T05:30:52;100247.94;;;12.44;100.00
69848;BME280;57143;55.940;37.496;2023-04-19T05:33:20;100253.59;;;13.18;97.10
69848;BME280;57143;55.940;37.496;2023-04-19T05:35:47;100264.22;;;13.50;92.22
69848;BME280;57143;55.940;37.496;2023-04-19T05:38:14;100270.69;;;13.56;87.68
69848;BME280;57143;55.940;37.496;2023-04-19T05:40:43;100273.34;;;13.80;87.47
69848;BME280;57143;55.940;37.496;2023-04-19T05:43:12;100282.06;;;13.71;84.06
69848;BME280;57143;55.940;37.496;2023-04-19T05:45:39;100283.44;;;13.55;87.12
69848;BME280;57143;55.940;37.496;2023-04-19T05:48:06;100287.09;;;13.49;86.45
69848;BME280;57143;55.940;37.496;2023-04-19T05:50:34;100273.25;;;12.89;89.12
69848;BME280;57143;55.940;37.496;2023-04-19T05:53:01;100281.97;;;12.53;93.79
69848;BME280;57143;55.940;37.496;2023-04-19T05:55:28;100280.56;;;12.37;95.02
69848;BME280;57143;55.940;37.496;2023-04-19T05:57:56;100281.34;;;12.57;95.32
69848;BME280;57143;55.940;37.496;2023-04-19T06:00:25;100271.31;;;12.96;93.87
69848;BME280;57143;55.940;37.496;2023-04-19T06:02:53;100276.94;;;13.01;92.58
69848;BME280;57143;55.940;37.496;2023-04-19T06:05:20;100279.06;;;12.54;93.90
69848;BME280;57143;55.940;37.496;2023-04-19T06:07:47;100277.22;;;12.86;96.67
69848;BME280;57143;55.940;37.496;2023-04-19T06:10:15;100281.94;;;12.66;98.45
69848;BME280;57143;55.940;37.496;2023-04-19T06:12:42;100260.06;;;12.41;100.00
69848;BME280;57143;55.940;37.496;2023-04-19T06:15:10;100264.22;;;12.88;99.47
69848;BME280;57143;55.940;37.496;2023-04-19T06:17:39;100281.34;;;13.57;94.39
69848;BME280;57143;55.940;37.496;2023-04-19T06:20:07;100290.06;;;13.90;89.81
69848;BME280;57143;55.940;37.496;2023-04-19T06:22:41;100295.59;;;13.59;90.02
69848;BME280;57143;55.940;37.496;2023-04-19T06:25:08;100308.94;;;13.05;90.74
69848;BME280;57143;55.940;37.496;2023-04-19T06:27:36;100288.41;;;13.40;95.48
69848;BME280;57143;55.940;37.496;2023-04-19T06:30:04;100291.50;;;13.68;92.55
69848;BME280;57143;55.940;37.496;2023-04-19T06:32:31;100294.50;;;13.05;93.91
69848;BME280;57143;55.940;37.496;2023-04-19T06:35:00;100266.81;;;12.76;98.78
69848;BME280;57143;55.940;37.496;2023-04-19T06:37:29;100276.94;;;13.01;97.77
69848;BME280;57143;55.940;37.496;2023-04-19T06:39:59;100280.28;;;12.58;100.00
69848;BME280;57143;55.940;37.496;2023-04-19T06:42:26;100297.78;;;12.75;97.56
69848;BME280;57143;55.940;37.496;2023-04-19T06:44:53;100288.28;;;12.91;95.88
69848;BME280;57143;55.940;37.496;2023-04-19T06:47:22;100295.50;;;13.41;94.16
69848;BME280;57143;55.940;37.496;2023-04-19T06:49:49;100319.41;;;13.88;88.53
69848;BME280;57143;55.940;37.496;2023-04-19T06:52:20;100220.72;;;13.19;89.25
69848;BME280;57143;55.940;37.496;2023-04-19T06:54:47;100316.09;;;14.29;87.86
69848;BME280;57143;55.940;37.496;2023-04-19T06:57:15;100328.25;;;13.84;87.98
69848;BME280;57143;55.940;37.496;2023-04-19T06:59:43;100315.75;;;14.01;87.35
69848;BME280;57143;55.940;37.496;2023-04-19T07:02:10;100324.78;;;14.20;85.51
69848;BME280;57143;55.940;37.496;2023-04-19T07:04:37;100319.28;;;14.62;88.06
69848;BME280;57143;55.940;37.496;2023-04-19T07:07:05;100320.03;;;14.69;84.26
69848;BME280;57143;55.940;37.496;2023-04-19T07:09:33;100302.91;;;14.62;83.08
69848;BME280;57143;55.940;37.496;2023-04-19T07:12:01;100323.47;;;14.94;81.87
69848;BME280;57143;55.940;37.496;2023-04-19T07:14:28;100339.06;;;15.35;79.17
69848;BME280;57143;55.940;37.496;2023-04-19T07:16:55;100322.63;;;15.53;79.87
69848;BME280;57143;55.940;37.496;2023-04-19T07:19:22;100320.97;;;15.64;75.93
69848;BME280;57143;55.940;37.496;2023-04-19T07:21:50;100349.88;;;15.71;75.34
69848;BME280;57143;55.940;37.496;2023-04-19T07:24:18;100317.94;;;15.01;76.36
69848;BME280;57143;55.940;37.496;2023-04-19T07:26:46;100328.25;;;15.29;76.25
69848;BME280;57143;55.940;37.496;2023-04-19T07:29:14;100314.53;;;15.17;77.04
69848;BME280;57143;55.940;37.496;2023-04-19T07:31:41;100311.50;;;15.66;74.76
69848;BME280;57143;55.940;37.496;2023-04-19T07:34:08;100311.69;;;15.42;78.00
69848;BME280;57143;55.940;37.496;2023-04-19T07:36:35;100330.19;;;15.92;74.86
69848;BME280;57143;55.940;37.496;2023-04-19T07:39:03;100326.84;;;16.13;75.43
69848;BME280;57143;55.940;37.496;2023-04-19T07:41:31;100313.75;;;15.69;74.08
69848;BME280;57143;55.940;37.496;2023-04-19T07:43:59;100285.06;;;15.07;75.74
69848;BME280;57143;55.940;37.496;2023-04-19T07:46:27;100334.72;;;15.16;74.78
69848;BME280;57143;55.940;37.496;2023-04-19T07:48:54;100339.81;;;15.13;72.49
69848;BME280;57143;55.940;37.496;2023-04-19T07:51:21;100333.00;;;15.03;75.70
69848;BME280;57143;55.940;37.496;2023-04-19T07:53:49;100333.22;;;15.02;76.53
69848;BME280;57143;55.940;37.496;2023-04-19T07:56:16;100330.38;;;15.56;74.27
69848;BME280;57143;55.940;37.496;2023-04-19T07:58:44;100320.97;;;15.52;75.06
69848;BME280;57143;55.940;37.496;2023-04-19T08:01:13;100330.81;;;15.53;74.76
69848;BME280;57143;55.940;37.496;2023-04-19T08:03:40;100324.03;;;15.15;75.46
69848;BME280;57143;55.940;37.496;2023-04-19T08:06:08;100319.16;;;15.46;73.91
69848;BME280;57143;55.940;37.496;2023-04-19T08:08:35;100334.75;;;15.57;71.17
69848;BME280;57143;55.940;37.496;2023-04-19T08:11:03;100324.19;;;15.61;73.06
69848;BME280;57143;55.940;37.496;2023-04-19T08:13:30;100320.19;;;15.75;73.58
69848;BME280;57143;55.940;37.496;2023-04-19T08:15:58;100329.19;;;15.64;68.79
69848;BME280;57143;55.940;37.496;2023-04-19T08:18:26;100330.69;;;15.48;66.86
69848;BME280;57143;55.940;37.496;2023-04-19T08:20:54;100326.50;;;15.75;68.77
69848;BME280;57143;55.940;37.496;2023-04-19T08:23:21;100321.50;;;15.84;69.28
69848;BME280;57143;55.940;37.496;2023-04-19T08:25:48;100334.34;;;16.18;68.57
69848;BME280;57143;55.940;37.496;2023-04-19T08:28:15;100327.34;;;15.87;67.91
69848;BME280;57143;55.940;37.496;2023-04-19T08:30:43;100319.91;;;14.94;71.67
69848;BME280;57143;55.940;37.496;2023-04-19T08:33:10;100322.66;;;15.65;71.03
69848;BME280;57143;55.940;37.496;2023-04-19T08:35:38;100315.50;;;15.52;73.11
69848;BME280;57143;55.940;37.496;2023-04-19T08:38:06;100305.91;;;15.20;70.71
69848;BME280;57143;55.940;37.496;2023-04-19T08:40:34;100322.97;;;15.45;71.76
69848;BME280;57143;55.940;37.496;2023-04-19T08:43:04;100306.34;;;15.47;70.85
69848;BME280;57143;55.940;37.496;2023-04-19T08:45:32;100317.44;;;15.34;69.71
69848;BME280;57143;55.940;37.496;2023-04-19T08:48:00;100311.31;;;15.50;70.45
69848;BME280;57143;55.940;37.496;2023-04-19T08:50:28;100325.16;;;14.95;71.67
69848;BME280;57143;55.940;37.496;2023-04-19T08:52:58;100303.16;;;15.20;69.56
69848;BME280;57143;55.940;37.496;2023-04-19T08:55:26;100299.94;;;15.12;70.94
69848;BME280;57143;55.940;37.496;2023-04-19T08:57:55;100315.59;;;15.16;71.63
69848;BME280;57143;55.940;37.496;2023-04-19T09:00:23;100324.66;;;14.51;72.22
69848;BME280;57143;55.940;37.496;2023-04-19T09:02:51;100296.22;;;14.76;72.51
69848;BME280;57143;55.940;37.496;2023-04-19T09:05:19;100300.94;;;15.29;69.47
69848;BME280;57143;55.940;37.496;2023-04-19T09:07:47;100303.56;;;14.76;71.03
69848;BME280;57143;55.940;37.496;2023-04-19T09:10:17;100282.38;;;14.89;69.74
69848;BME280;57143;55.940;37.496;2023-04-19T09:13:00;100324.88;;;14.67;70.08
69848;BME280;57143;55.940;37.496;2023-04-19T09:15:37;100294.72;;;14.62;71.91
69848;BME280;57143;55.940;37.496;2023-04-19T09:18:06;100305.63;;;14.62;71.72
69848;BME280;57143;55.940;37.496;2023-04-19T09:20:35;100293.06;;;14.61;70.85
69848;BME280;57143;55.940;37.496;2023-04-19T09:23:03;100298.38;;;14.86;69.90
69848;BME280;57143;55.940;37.496;2023-04-19T09:25:32;100281.91;;;14.45;70.67
69848;BME280;57143;55.940;37.496;2023-04-19T09:28:09;100309.75;;;14.35;70.70
69848;BME280;57143;55.940;37.496;2023-04-19T09:30:38;100298.34;;;14.74;70.06
69848;BME280;57143;55.940;37.496;2023-04-19T09:33:05;100300.75;;;14.82;69.01
69848;BME280;57143;55.940;37.496;2023-04-19T09:35:40;100286.53;;;15.22;68.57
69848;BME280;57143;55.940;37.496;2023-04-19T09:38:08;100298.38;;;14.86;67.81
69848;BME280;57143;55.940;37.496;2023-04-19T09:40:39;100289.03;;;14.64;68.90
69848;BME280;57143;55.940;37.496;2023-04-19T09:43:07;100261.78;;;14.75;69.67
69848;BME280;57143;55.940;37.496;2023-04-19T09:45:41;100288.25;;;14.75;70.26
69848;BME280;57143;55.940;37.496;2023-04-19T09:48:09;100293.81;;;14.50;68.54
69848;BME280;57143;55.940;37.496;2023-04-19T09:50:50;100287.50;;;15.27;67.61
69848;BME280;57143;55.940;37.496;2023-04-19T09:53:18;100280.88;;;15.35;65.98
69848;BME280;57143;55.940;37.496;2023-04-19T09:55:47;100280.00;;;15.64;64.54
69848;BME280;57143;55.940;37.496;2023-04-19T09:58:14;100280.03;;;15.75;64.17
69848;BME280;57143;55.940;37.496;2023-04-19T10:00:43;100264.19;;;15.77;64.57
69848;BME280;57143;55.940;37.496;2023-04-19T10:03:13;100265.97;;;15.49;66.62
69848;BME280;57143;55.940;37.496;2023-04-19T10:05:42;100270.09;;;15.40;68.20
69848;BME280;57143;55.940;37.496;2023-04-19T10:08:11;100279.75;;;15.54;67.35
69848;BME280;57143;55.940;37.496;2023-04-19T10:10:39;100274.41;;;15.47;67.23
69848;BME280;57143;55.940;37.496;2023-04-19T10:13:10;100276.44;;;15.63;67.51
69848;BME280;57143;55.940;37.496;2023-04-19T10:15:40;100263.84;;;15.62;66.88
69848;BME280;57143;55.940;37.496;2023-04-19T10:18:09;100261.50;;;15.25;68.62
69848;BME280;57143;55.940;37.496;2023-04-19T10:20:40;100272.78;;;15.28;68.46
69848;BME280;57143;55.940;37.496;2023-04-19T10:23:14;100273.00;;;15.56;67.58
69848;BME280;57143;55.940;37.496;2023-04-19T10:25:45;100262.91;;;15.68;66.26
69848;BME280;57143;55.940;37.496;2023-04-19T10:28:14;100266.09;;;15.54;66.75
69848;BME280;57143;55.940;37.496;2023-04-19T10:30:52;100228.28;;;15.39;68.31
69848;BME280;57143;55.940;37.496;2023-04-19T10:33:24;100254.19;;;15.48;68.45
69848;BME280;57143;55.940;37.496;2023-04-19T10:35:54;100228.13;;;15.23;68.58
69848;BME280;57143;55.940;37.496;2023-04-19T10:38:35;100252.13;;;15.32;68.75
69848;BME280;57143;55.940;37.496;2023-04-19T10:41:03;100256.44;;;15.40;67.07
69848;BME280;57143;55.940;37.496;2023-04-19T10:43:38;100247.34;;;15.28;67.43
69848;BME280;57143;55.940;37.496;2023-04-19T10:46:06;100253.78;;;15.33;69.26
69848;BME280;57143;55.940;37.496;2023-04-19T10:48:39;100248.25;;;15.40;67.78
69848;BME280;57143;55.940;37.496;2023-04-19T10:51:13;100257.91;;;15.13;67.76
69848;BME280;57143;55.940;37.496;2023-04-19T10:53:52;100232.97;;;15.21;69.59
69848;BME280;57143;55.940;37.496;2023-04-19T10:56:22;100244.22;;;15.42;69.25
69848;BME280;57143;55.940;37.496;2023-04-19T10:59:16;100255.16;;;15.42;68.27
69848;BME280;57143;55.940;37.496;2023-04-19T11:01:57;100249.31;;;15.50;67.86
69848;BME280;57143;55.940;37.496;2023-04-19T11:07:38;100243.38;;;15.53;67.82
69848;BME280;57143;55.940;37.496;2023-04-19T11:10:08;100235.44;;;15.75;66.33
69848;BME280;57143;55.940;37.496;2023-04-19T11:12:36;100199.19;;;15.79;65.64
69848;BME280;57143;55.940;37.496;2023-04-19T11:15:05;100236.44;;;15.28;66.36
69848;BME280;57143;55.940;37.496;2023-04-19T11:17:34;100231.63;;;15.41;67.66
69848;BME280;57143;55.940;37.496;2023-04-19T11:20:05;100211.31;;;15.49;67.39
69848;BME280;57143;55.940;37.496;2023-04-19T11:22:34;100223.44;;;15.53;66.93
69848;BME280;57143;55.940;37.496;2023-04-19T11:25:07;100235.69;;;15.73;66.94
69848;BME280;57143;55.940;37.496;2023-04-19T11:27:38;100222.72;;;15.80;66.67
69848;BME280;57143;55.940;37.496;2023-04-19T11:30:09;100234.50;;;15.69;64.20
69848;BME280;57143;55.940;37.496;2023-04-19T11:32:37;100234.00;;;15.72;63.48
69848;BME280;57143;55.940;37.496;2023-04-19T11:35:10;100217.28;;;15.80;63.29
69848;BME280;57143;55.940;37.496;2023-04-19T11:37:38;100219.25;;;15.96;63.95
69848;BME280;57143;55.940;37.496;2023-04-19T11:40:06;100226.06;;;15.82;63.34
69848;BME280;57143;55.940;37.496;2023-04-19T11:42:37;100231.28;;;15.61;63.58
69848;BME280;57143;55.940;37.496;2023-04-19T11:45:07;100207.88;;;15.76;63.93
69848;BME280;57143;55.940;37.496;2023-04-19T11:47:46;100214.63;;;15.74;63.92
69848;BME280;57143;55.940;37.496;2023-04-19T11:50:33;100210.81;;;15.86;63.46
69848;BME280;57143;55.940;37.496;2023-04-19T11:53:10;100210.69;;;16.04;62.95
69848;BME280;57143;55.940;37.496;2023-04-19T11:55:38;100208.94;;;15.64;61.60
69848;BME280;57143;55.940;37.496;2023-04-19T11:58:07;100203.13;;;15.60;61.89
69848;BME280;57143;55.940;37.496;2023-04-19T12:00:45;100200.22;;;16.01;61.32
69848;BME280;57143;55.940;37.496;2023-04-19T12:03:20;100199.31;;;15.96;59.12
69848;BME280;57143;55.940;37.496;2023-04-19T12:05:52;100200.13;;;15.96;60.00
69848;BME280;57143;55.940;37.496;2023-04-19T12:08:29;100199.13;;;16.14;59.30
69848;BME280;57143;55.940;37.496;2023-04-19T12:10:58;100197.06;;;15.81;60.87
69848;BME280;57143;55.940;37.496;2023-04-19T12:13:25;100205.28;;;15.70;61.24
69848;BME280;57143;55.940;37.496;2023-04-19T12:15:54;100182.91;;;15.96;60.48
69848;BME280;57143;55.940;37.496;2023-04-19T12:18:21;100180.03;;;16.02;59.70
69848;BME280;57143;55.940;37.496;2023-04-19T12:20:51;100176.66;;;16.24;60.10
69848;BME280;57143;55.940;37.496;2023-04-19T12:23:19;100186.41;;;16.19;59.45
69848;BME280;57143;55.940;37.496;2023-04-19T12:25:53;100179.69;;;16.39;58.91
69848;BME280;57143;55.940;37.496;2023-04-19T12:28:20;100180.38;;;16.46;57.74
69848;BME280;57143;55.940;37.496;2023-04-19T12:30:47;100185.13;;;16.50;56.81
69848;BME280;57143;55.940;37.496;2023-04-19T12:33:16;100171.03;;;16.30;57.85
69848;BME280;57143;55.940;37.496;2023-04-19T12:35:43;100189.09;;;16.31;57.71
69848;BME280;57143;55.940;37.496;2023-04-19T12:38:10;100181.09;;;16.41;56.56
69848;BME280;57143;55.940;37.496;2023-04-19T12:40:37;100168.59;;;16.45;56.80
69848;BME280;57143;55.940;37.496;2023-04-19T12:43:05;100166.88;;;16.28;57.19
69848;BME280;57143;55.940;37.496;2023-04-19T12:45:33;100171.19;;;16.24;57.79
69848;BME280;57143;55.940;37.496;2023-04-19T12:48:00;100167.31;;;16.36;57.52
69848;BME280;57143;55.940;37.496;2023-04-19T12:50:29;100157.41;;;16.07;58.52